Aztec, New Mexico
Current Conditions -  °F | °C
As of 11:53 PM on Thursday 30 Oct 2014 (Local Time) from KFMN Reporting Station
Clear Clear  
Wind Chill:   Ceiling: Unl
Heat Index:   Visibility: 10mi
Dew Point: -6°   Wind: 12mph
Humidity: 42%   Direction: 100°E
Pressure: 30.27"   Gusts: NA
Location:  36.83°N, 107.99°W
Report Text: KFMN 310553Z AUTO 10010KT 10SM CLR 07/M06 A3027 RMK AO2 SLP231 T00671056 10189 20056 50003
Loading
Personal Weather Stations






























Interactive Weather Map
Tropical Storm Tracking
New forecast layout! Learn more

10-Day Weather Forecast

Advertisements
Track Severe Weather on mobile